createdAt,value
2018-02-21T00:00:49.386Z,56.83
2018-02-21T00:01:52.626Z,59.30
2018-02-21T00:02:55.854Z,56.13
2018-02-21T00:03:59.101Z,59.35
2018-02-21T00:05:02.333Z,59.42
2018-02-21T00:06:05.603Z,55.53
2018-02-21T00:07:08.840Z,59.83
2018-02-21T00:08:12.077Z,55.20
2018-02-21T00:09:15.306Z,55.35
2018-02-21T00:10:18.558Z,57.58
2018-02-21T00:11:21.806Z,60.72
2018-02-21T00:12:25.792Z,53.47
2018-02-21T00:13:29.825Z,54.90
2018-02-21T00:14:33.015Z,56.28
2018-02-21T00:15:36.243Z,56.50
2018-02-21T00:16:39.565Z,51.63
2018-02-21T00:17:42.786Z,54.30
2018-02-21T00:18:46.004Z,52.28
2018-02-21T00:19:50.041Z,52.90
2018-02-21T00:20:53.264Z,54.47
2018-02-21T00:21:56.510Z,53.97
2018-02-21T00:22:59.729Z,53.22
2018-02-21T00:24:03.073Z,51.03
2018-02-21T00:25:06.304Z,55.35
2018-02-21T00:26:09.536Z,55.03
2018-02-21T00:27:12.858Z,54.40
2018-02-21T00:28:16.050Z,56.40
2018-02-21T00:29:19.285Z,52.90
2018-02-21T00:30:22.516Z,55.78
2018-02-21T00:31:25.771Z,57.55
2018-02-21T00:32:28.982Z,58.25
2018-02-21T00:33:32.214Z,53.33
2018-02-21T00:34:35.544Z,56.35
2018-02-21T00:35:38.772Z,58.70
2018-02-21T00:36:41.990Z,57.38
2018-02-21T00:37:45.210Z,57.58
2018-02-21T00:38:48.572Z,61.35
2018-02-21T00:39:51.760Z,56.90
2018-02-21T00:40:54.993Z,59.58
2018-02-21T00:41:59.005Z,58.22
2018-02-21T00:43:02.234Z,64.20
2018-02-21T00:44:05.457Z,56.92
2018-02-21T00:45:08.672Z,56.78
2018-02-21T00:46:11.926Z,59.17
2018-02-21T00:47:15.905Z,57.97
2018-02-21T00:48:19.898Z,56.65
2018-02-21T00:49:23.116Z,59.67
2018-02-21T00:50:26.341Z,55.40
2018-02-21T00:51:29.573Z,56.33
2018-02-21T00:52:32.821Z,59.17
2018-02-21T00:53:36.090Z,67.90
2018-02-21T00:54:39.317Z,63.87
2018-02-21T00:55:43.679Z,56.50
2018-02-21T00:56:46.864Z,63.00
2018-02-21T00:57:50.172Z,56.40
2018-02-21T00:58:54.578Z,55.88
2018-02-21T00:59:57.815Z,56.33
2018-02-21T01:01:01.046Z,59.53
2018-02-21T01:02:05.081Z,65.62
2018-02-21T01:03:08.305Z,57.92
2018-02-21T01:04:11.541Z,60.72
2018-02-21T01:05:14.794Z,60.05
2018-02-21T01:06:18.100Z,57.10
2018-02-21T01:07:21.389Z,65.15
2018-02-21T01:08:24.611Z,62.00
2018-02-21T01:09:27.849Z,57.65
2018-02-21T01:10:31.823Z,60.05
2018-02-21T01:11:35.187Z,60.80
2018-02-21T01:12:38.391Z,57.92
2018-02-21T01:13:41.652Z,59.10
2018-02-21T01:14:44.857Z,60.53
2018-02-21T01:15:48.176Z,57.70
2018-02-21T01:16:51.404Z,58.30
2018-02-21T01:17:54.649Z,57.40
2018-02-21T01:18:57.945Z,58.30
2018-02-21T01:20:01.252Z,60.17
2018-02-21T01:21:04.451Z,59.85
2018-02-21T01:22:07.673Z,52.58
2018-02-21T01:23:10.983Z,55.12
2018-02-21T01:24:14.208Z,57.88
2018-02-21T01:25:17.431Z,60.20
2018-02-21T01:26:20.693Z,57.67
2018-02-21T01:27:24.690Z,54.83
2018-02-21T01:28:28.721Z,63.33
2018-02-21T01:29:31.990Z,61.88
2018-02-21T01:30:35.235Z,58.92
2018-02-21T01:31:38.436Z,53.17
2018-02-21T01:32:42.438Z,62.15
2018-02-21T01:33:46.417Z,61.17
2018-02-21T01:34:49.665Z,60.05
2018-02-21T01:35:52.890Z,61.22
2018-02-21T01:36:56.114Z,57.28
2018-02-21T01:37:59.371Z,55.85
2018-02-21T01:39:02.590Z,61.63
2018-02-21T01:40:05.815Z,64.87
2018-02-21T01:41:09.048Z,61.97
2018-02-21T01:42:12.366Z,59.45
2018-02-21T01:43:15.591Z,64.18
2018-02-21T01:44:19.583Z,62.90
2018-02-21T01:45:22.789Z,62.60
2018-02-21T01:46:26.201Z,61.50
2018-02-21T01:47:29.400Z,62.15
2018-02-21T01:48:32.626Z,62.03
2018-02-21T01:49:36.617Z,62.35
2018-02-21T01:50:52.297Z,66.22
2018-02-21T01:51:56.312Z,63.13
2018-02-21T01:53:00.363Z,65.15
2018-02-21T01:54:03.695Z,62.65
2018-02-21T01:55:07.694Z,58.65
2018-02-21T01:56:10.930Z,64.47
2018-02-21T01:57:14.162Z,62.90
2018-02-21T01:58:18.153Z,59.70
2018-02-21T01:59:22.166Z,60.17
2018-02-21T02:00:26.176Z,65.95
2018-02-21T02:01:29.417Z,69.50
2018-02-21T02:02:32.651Z,64.22
2018-02-21T02:03:35.928Z,57.17
2018-02-21T02:04:39.170Z,70.12
2018-02-21T02:05:42.535Z,66.12
2018-02-21T02:06:45.829Z,64.68
2018-02-21T02:07:49.036Z,68.18
2018-02-21T02:08:53.036Z,65.50
2018-02-21T02:09:57.047Z,68.70
2018-02-21T02:11:01.057Z,70.57
2018-02-21T02:12:04.336Z,66.60
2018-02-21T02:13:07.582Z,69.50
2018-02-21T02:14:10.824Z,69.62
2018-02-21T02:15:14.036Z,66.72
2018-02-21T02:16:17.271Z,71.78
2018-02-21T02:17:20.557Z,75.50
2018-02-21T02:18:23.791Z,76.80
2018-02-21T02:19:27.037Z,65.25
2018-02-21T02:20:30.314Z,66.03
2018-02-21T02:21:33.539Z,72.10
2018-02-21T02:22:36.768Z,76.65
2018-02-21T02:23:40.010Z,74.87
2018-02-21T02:24:43.238Z,68.18
2018-02-21T02:25:46.472Z,67.78
2018-02-21T02:26:49.700Z,72.43
2018-02-21T02:27:52.942Z,70.12
2018-02-21T02:28:56.164Z,70.07
2018-02-21T02:29:59.424Z,68.32
2018-02-21T02:31:03.438Z,68.53
2018-02-21T02:32:06.665Z,71.47
2018-02-21T02:33:09.893Z,70.82
2018-02-21T02:34:13.899Z,67.60
2018-02-21T02:35:18.067Z,71.47
2018-02-21T02:36:21.283Z,68.40
2018-02-21T02:37:25.358Z,68.45
2018-02-21T02:38:40.265Z,63.58
2018-02-21T02:39:50.422Z,68.12
2018-02-21T02:40:53.633Z,70.47
2018-02-21T02:41:56.917Z,74.90
2018-02-21T02:43:00.093Z,71.25
2018-02-21T02:44:03.320Z,74.15
2018-02-21T02:45:07.367Z,78.45
2018-02-21T02:46:10.642Z,74.87
2018-02-21T02:47:13.881Z,75.32
2018-02-21T02:48:17.923Z,72.95
2018-02-21T02:49:21.164Z,72.05
2018-02-21T02:50:24.389Z,73.20
2018-02-21T02:51:27.629Z,70.22
2018-02-21T02:52:31.673Z,75.28
2018-02-21T02:53:34.910Z,74.32
2018-02-21T02:54:38.954Z,74.95
2018-02-21T02:55:42.595Z,84.75
2018-02-21T02:56:45.798Z,79.65
2018-02-21T02:57:49.795Z,75.72
2018-02-21T02:58:53.801Z,76.78
2018-02-21T02:59:58.052Z,76.87
2018-02-21T03:01:01.296Z,75.28
2018-02-21T03:02:05.320Z,75.28
2018-02-21T03:03:08.958Z,74.97
2018-02-21T03:04:12.166Z,74.95
2018-02-21T03:05:16.167Z,73.12
2018-02-21T03:06:20.161Z,69.53
2018-02-21T03:07:23.389Z,71.40
2018-02-21T03:08:26.663Z,74.50
2018-02-21T03:09:29.915Z,71.43
2018-02-21T03:10:33.920Z,72.20
2018-02-21T03:11:37.941Z,74.20
2018-02-21T03:12:41.913Z,73.35
2018-02-21T03:13:45.904Z,71.35
2018-02-21T03:14:49.909Z,76.05
2018-02-21T03:15:53.141Z,77.12
2018-02-21T03:16:56.361Z,77.32
2018-02-21T03:17:59.584Z,68.22
2018-02-21T03:19:02.824Z,77.57
2018-02-21T03:20:06.070Z,67.25
2018-02-21T03:21:09.380Z,79.90
2018-02-21T03:22:12.584Z,78.25
2018-02-21T03:23:15.869Z,71.45
2018-02-21T03:24:19.107Z,77.12
2018-02-21T03:25:22.320Z,70.93
2018-02-21T03:26:25.653Z,71.70
2018-02-21T03:27:29.639Z,69.20
2018-02-21T03:28:33.652Z,73.32
2018-02-21T03:29:36.963Z,76.68
2018-02-21T03:30:40.205Z,78.28
2018-02-21T03:31:44.266Z,70.75
2018-02-21T03:32:47.544Z,68.47
2018-02-21T03:33:50.775Z,72.03
2018-02-21T03:34:54.756Z,68.90
2018-02-21T03:35:57.989Z,63.03
2018-02-21T03:37:01.242Z,71.03
2018-02-21T03:38:05.227Z,68.07
2018-02-21T03:39:08.552Z,69.90
2018-02-21T03:40:11.805Z,64.20
2018-02-21T03:41:15.818Z,67.43
2018-02-21T03:42:19.873Z,69.87
2018-02-21T03:43:23.074Z,68.95
2018-02-21T03:44:26.302Z,69.22
2018-02-21T03:45:29.576Z,70.18
2018-02-21T03:46:32.882Z,69.97
2018-02-21T03:47:36.103Z,69.60
2018-02-21T03:48:39.341Z,67.80
2018-02-21T03:49:42.588Z,67.10
2018-02-21T03:50:46.575Z,63.15
2018-02-21T03:51:49.904Z,65.05
2018-02-21T03:52:53.147Z,62.55
2018-02-21T03:53:56.364Z,65.22
2018-02-21T03:54:59.628Z,62.22
2018-02-21T03:56:03.622Z,57.67
2018-02-21T03:57:07.603Z,64.12
2018-02-21T03:58:10.863Z,69.30
2018-02-21T03:59:14.058Z,67.43
2018-02-21T04:00:17.281Z,65.85
2018-02-21T04:01:21.273Z,67.30
2018-02-21T04:02:25.269Z,68.97
2018-02-21T04:03:29.265Z,61.00
2018-02-21T04:04:32.470Z,67.62
2018-02-21T04:05:35.705Z,64.37
2018-02-21T04:06:38.916Z,69.62
2018-02-21T04:07:42.911Z,66.43
2018-02-21T04:08:46.900Z,67.15
2018-02-21T04:09:50.137Z,66.20
2018-02-21T04:10:53.413Z,68.82
2018-02-21T04:11:56.810Z,68.65
2018-02-21T04:13:00.026Z,63.63
2018-02-21T04:14:03.267Z,69.25
2018-02-21T04:16:16.011Z,65.12
2018-02-21T04:17:19.253Z,64.28
2018-02-21T04:18:22.517Z,61.67
2018-02-21T04:19:26.603Z,66.87
2018-02-21T04:20:29.816Z,63.22
2018-02-21T04:21:33.822Z,61.63
2018-02-21T04:22:38.518Z,62.80
2018-02-21T04:23:42.593Z,68.18
2018-02-21T04:24:45.815Z,63.70
2018-02-21T04:25:49.796Z,65.32
2018-02-21T04:26:53.032Z,59.50
2018-02-21T04:27:56.271Z,62.25
2018-02-21T04:29:00.269Z,62.42
2018-02-21T04:30:04.286Z,65.25
2018-02-21T04:31:07.533Z,65.87
2018-02-21T04:32:10.780Z,63.85
2018-02-21T04:33:13.998Z,59.38
2018-02-21T04:34:17.242Z,68.60
2018-02-21T04:35:20.466Z,59.67
2018-02-21T04:36:23.699Z,60.75
2018-02-21T04:37:27.025Z,62.55
2018-02-21T04:38:30.253Z,68.43
2018-02-21T04:39:34.254Z,61.13
2018-02-21T04:40:38.250Z,57.97
2018-02-21T04:41:42.242Z,59.38
2018-02-21T04:42:46.250Z,65.78
2018-02-21T04:43:49.543Z,61.00
2018-02-21T04:44:53.541Z,65.45
2018-02-21T04:45:56.878Z,55.95
2018-02-21T04:47:00.062Z,60.20
2018-02-21T04:48:03.289Z,59.67
2018-02-21T04:49:07.286Z,63.28
2018-02-21T04:50:11.277Z,62.13
2018-02-21T04:51:15.250Z,54.72
2018-02-21T04:52:18.490Z,59.25
2018-02-21T04:53:21.718Z,58.38
2018-02-21T04:54:39.827Z,64.53
2018-02-21T04:57:27.654Z,59.60
2018-02-21T04:58:36.672Z,64.97
2018-02-21T04:59:41.754Z,62.78
2018-02-21T05:00:46.646Z,61.78
2018-02-21T05:01:49.922Z,54.67
2018-02-21T05:02:53.150Z,55.50
2018-02-21T05:03:57.204Z,48.00
2018-02-21T05:05:00.454Z,51.08
2018-02-21T05:06:03.665Z,54.67
2018-02-21T05:07:06.918Z,55.35
2018-02-21T05:08:10.163Z,46.53
2018-02-21T05:09:13.371Z,46.22
2018-02-21T05:10:16.594Z,44.35
2018-02-21T05:11:19.836Z,46.92
2018-02-21T05:12:23.850Z,49.38
2018-02-21T05:13:27.075Z,48.70
2018-02-21T05:14:30.346Z,52.05
2018-02-21T05:15:33.628Z,49.72
2018-02-21T05:16:36.920Z,55.33
2018-02-21T05:17:40.108Z,46.17
2018-02-21T05:18:43.374Z,45.80
2018-02-21T05:19:46.605Z,44.63
2018-02-21T05:20:50.678Z,42.47
2018-02-21T05:21:53.966Z,47.15
2018-02-21T05:22:57.202Z,46.67
2018-02-21T05:24:00.478Z,50.33
2018-02-21T05:25:03.728Z,43.63
2018-02-21T05:26:07.093Z,44.10
2018-02-21T05:27:10.279Z,48.08
2018-02-21T05:28:13.517Z,47.38
2018-02-21T05:29:17.763Z,47.97
2018-02-21T05:30:21.005Z,47.58
2018-02-21T05:31:24.994Z,45.12
2018-02-21T05:32:29.013Z,55.17
2018-02-21T05:33:32.235Z,49.30
2018-02-21T05:34:35.470Z,50.30
2018-02-21T05:35:39.545Z,54.28
2018-02-21T05:36:43.561Z,47.25
2018-02-21T05:37:47.545Z,51.88
2018-02-21T05:38:50.758Z,49.00
2018-02-21T05:39:53.978Z,51.63
2018-02-21T05:40:57.264Z,46.75
2018-02-21T05:42:00.471Z,52.03
2018-02-21T05:43:03.806Z,50.30
2018-02-21T05:44:07.072Z,51.60
2018-02-21T05:45:10.327Z,51.28
2018-02-21T05:46:13.560Z,55.58
2018-02-21T05:47:17.791Z,52.03
2018-02-21T05:48:21.090Z,54.75
2018-02-21T05:49:24.313Z,53.40
2018-02-21T05:50:27.622Z,52.13
2018-02-21T05:51:30.853Z,55.25
2018-02-21T05:52:34.867Z,57.00
2018-02-21T05:53:38.857Z,58.22
2018-02-21T05:54:42.966Z,60.30
2018-02-21T05:55:46.984Z,52.53
2018-02-21T05:56:50.287Z,55.15
2018-02-21T05:57:53.519Z,55.47
2018-02-21T05:58:56.896Z,61.72
2018-02-21T06:00:00.140Z,49.80
2018-02-21T06:01:03.386Z,56.33
2018-02-21T06:02:07.488Z,57.15
2018-02-21T06:03:11.493Z,56.92
2018-02-21T06:04:15.522Z,53.40
2018-02-21T06:05:18.761Z,58.33
2018-02-21T06:06:22.113Z,56.17
2018-02-21T06:07:25.317Z,59.70
2018-02-21T06:08:28.684Z,58.20
2018-02-21T06:09:31.913Z,54.30
2018-02-21T06:10:35.906Z,63.70
2018-02-21T06:11:40.014Z,55.47
2018-02-21T06:12:44.039Z,55.72
2018-02-21T06:13:47.258Z,55.25
2018-02-21T06:14:50.474Z,52.28
2018-02-21T06:15:53.710Z,59.03
2018-02-21T06:16:56.931Z,57.75
2018-02-21T06:18:00.169Z,56.00
2018-02-21T06:19:03.478Z,55.05
2018-02-21T06:20:06.727Z,58.10
2018-02-21T06:21:09.962Z,63.42
2018-02-21T06:22:13.949Z,56.58
2018-02-21T06:23:17.180Z,60.70
2018-02-21T06:24:20.430Z,58.05
2018-02-21T06:25:23.646Z,56.95
2018-02-21T06:26:26.865Z,61.97
2018-02-21T06:27:30.136Z,61.37
2018-02-21T06:28:33.349Z,62.13
2018-02-21T06:29:36.577Z,61.67
2018-02-21T06:30:39.823Z,57.53
2018-02-21T06:31:43.053Z,65.15
2018-02-21T06:32:46.865Z,63.90
2018-02-21T06:33:50.094Z,66.20
2018-02-21T06:34:54.107Z,67.70
2018-02-21T06:35:58.108Z,57.20
2018-02-21T06:37:02.131Z,68.35
2018-02-21T06:38:05.371Z,67.75
2018-02-21T06:39:08.645Z,67.93
2018-02-21T06:40:11.864Z,71.50
2018-02-21T06:41:15.125Z,76.45
2018-02-21T06:42:18.351Z,67.35
2018-02-21T06:43:21.591Z,67.95
2018-02-21T06:44:25.598Z,65.93
2018-02-21T06:45:29.601Z,74.40
2018-02-21T06:46:33.595Z,68.60
2018-02-21T06:47:36.806Z,72.10
2018-02-21T06:48:40.150Z,73.40
2018-02-21T06:49:43.360Z,71.62
2018-02-21T06:50:47.391Z,66.68
2018-02-21T06:51:50.654Z,70.90
2018-02-21T06:52:53.888Z,74.50
2018-02-21T06:53:57.134Z,72.70
2018-02-21T06:55:00.362Z,74.35
2018-02-21T06:56:03.623Z,71.50
2018-02-21T06:57:06.857Z,69.28
2018-02-21T06:58:10.870Z,67.15
2018-02-21T06:59:14.933Z,70.78
2018-02-21T07:00:18.962Z,67.20
2018-02-21T07:01:23.788Z,65.25
2018-02-21T07:02:34.846Z,68.75
2018-02-21T07:03:38.844Z,73.68
2018-02-21T07:04:42.134Z,66.32
2018-02-21T07:05:46.211Z,71.25
2018-02-21T07:06:49.434Z,68.47
2018-02-21T07:07:52.681Z,64.57
2018-02-21T07:08:56.693Z,69.85
2018-02-21T07:10:00.711Z,65.00
2018-02-21T07:11:04.702Z,71.15
2018-02-21T07:12:08.701Z,68.95
2018-02-21T07:13:12.710Z,70.35
2018-02-21T07:14:16.697Z,61.83
2018-02-21T07:15:20.691Z,65.10
2018-02-21T07:16:23.921Z,62.83
2018-02-21T07:17:27.241Z,72.55
2018-02-21T07:18:30.481Z,65.35
2018-02-21T07:19:33.706Z,63.87
2018-02-21T07:20:36.992Z,60.55
2018-02-21T07:21:40.232Z,64.10
2018-02-21T07:22:43.469Z,64.55
2018-02-21T07:23:46.702Z,74.55
2018-02-21T07:24:50.691Z,64.22
2018-02-21T07:25:53.919Z,67.87
2018-02-21T07:26:57.149Z,69.05
2018-02-21T07:28:00.368Z,70.72
2018-02-21T07:29:04.354Z,65.62
2018-02-21T07:30:08.390Z,66.82
2018-02-21T07:31:11.675Z,66.85
2018-02-21T07:32:14.912Z,69.25
2018-02-21T07:33:18.147Z,64.05
2018-02-21T07:34:21.365Z,64.82
2018-02-21T07:35:24.598Z,64.35
2018-02-21T07:36:27.843Z,63.90
2018-02-21T07:37:31.073Z,61.92
2018-02-21T07:38:34.297Z,65.00
2018-02-21T07:39:37.538Z,65.57
2018-02-21T07:40:40.769Z,65.62
2018-02-21T07:41:44.013Z,68.70
2018-02-21T07:42:47.244Z,62.50
2018-02-21T07:43:50.456Z,63.72
2018-02-21T07:44:53.764Z,72.70
2018-02-21T07:45:57.045Z,62.03
2018-02-21T07:47:00.277Z,62.17
2018-02-21T07:48:04.265Z,71.00
2018-02-21T07:49:07.543Z,68.45
2018-02-21T07:50:10.785Z,67.57
2018-02-21T07:51:14.018Z,63.50
2018-02-21T07:52:17.246Z,63.72
2018-02-21T07:53:20.487Z,70.50
2018-02-21T07:54:23.719Z,66.93
2018-02-21T07:55:26.937Z,67.18
2018-02-21T07:56:30.185Z,64.07
2018-02-21T07:57:33.412Z,66.43
2018-02-21T07:58:36.656Z,72.15
2018-02-21T07:59:39.878Z,67.22
2018-02-21T08:00:43.176Z,63.92
2018-02-21T08:01:46.507Z,62.65
2018-02-21T08:02:49.769Z,67.20
2018-02-21T08:03:53.762Z,59.60
2018-02-21T08:04:57.769Z,68.82
2018-02-21T08:06:00.978Z,59.30
2018-02-21T08:07:04.204Z,68.28
2018-02-21T08:08:07.441Z,65.78
2018-02-21T08:09:10.821Z,65.85
2018-02-21T08:10:14.035Z,64.25
2018-02-21T08:11:17.267Z,67.12
2018-02-21T08:12:21.285Z,63.78
2018-02-21T08:13:24.546Z,66.43
2018-02-21T08:14:28.524Z,61.00
2018-02-21T08:15:31.796Z,67.53
2018-02-21T08:16:34.993Z,63.95
2018-02-21T08:17:38.269Z,67.65
2018-02-21T08:18:41.457Z,62.10
2018-02-21T08:19:44.694Z,65.75
2018-02-21T08:20:47.943Z,65.05
2018-02-21T08:21:51.162Z,58.15
2018-02-21T08:22:54.419Z,64.62
2018-02-21T08:23:57.659Z,65.72
2018-02-21T08:25:00.952Z,70.75
2018-02-21T08:26:04.186Z,62.67
2018-02-21T08:27:07.407Z,63.03
2018-02-21T08:28:12.272Z,63.40
2018-02-21T08:29:15.511Z,66.10
2018-02-21T08:30:18.762Z,73.32
2018-02-21T08:31:22.003Z,66.50
2018-02-21T08:32:25.997Z,65.93
2018-02-21T08:33:29.259Z,67.45
2018-02-21T08:34:32.446Z,59.88
2018-02-21T08:35:35.666Z,61.85
2018-02-21T08:36:39.672Z,63.87
2018-02-21T08:37:43.654Z,65.65
2018-02-21T08:38:47.647Z,63.55
2018-02-21T08:39:50.882Z,59.97
2018-02-21T08:40:54.109Z,67.82
2018-02-21T08:41:57.370Z,64.12
2018-02-21T08:43:00.604Z,64.70
2018-02-21T08:44:04.582Z,62.25
2018-02-21T08:45:08.657Z,68.22
2018-02-21T08:46:11.849Z,62.90
2018-02-21T08:47:15.130Z,68.05
2018-02-21T08:48:18.317Z,65.22
2018-02-21T08:49:23.035Z,62.22
2018-02-21T08:50:27.844Z,69.45
2018-02-21T08:51:31.052Z,67.43
2018-02-21T08:52:34.278Z,66.40
2018-02-21T08:53:37.517Z,62.90
2018-02-21T08:54:41.499Z,63.35
2018-02-21T08:55:44.725Z,63.63
2018-02-21T08:56:47.957Z,70.97
2018-02-21T08:57:51.204Z,68.32
2018-02-21T08:58:54.429Z,64.00
2018-02-21T08:59:57.679Z,62.33
2018-02-21T09:01:00.980Z,74.60
2018-02-21T09:02:04.259Z,67.90
2018-02-21T09:03:07.469Z,65.85
2018-02-21T09:04:10.703Z,64.40
2018-02-21T09:05:13.953Z,69.28
2018-02-21T09:06:17.965Z,57.85
2018-02-21T09:07:21.215Z,70.87
2018-02-21T09:08:24.480Z,67.78
2018-02-21T09:09:27.709Z,74.75
2018-02-21T09:10:31.706Z,70.35
2018-02-21T09:11:35.709Z,69.28
2018-02-21T09:12:38.951Z,70.57
2018-02-21T09:13:42.175Z,67.65
2018-02-21T09:14:46.171Z,69.90
2018-02-21T09:15:50.199Z,68.53
2018-02-21T09:16:53.457Z,69.90
2018-02-21T09:17:56.692Z,60.67
2018-02-21T09:18:59.958Z,63.55
2018-02-21T09:20:03.212Z,64.05
2018-02-21T09:21:06.500Z,64.22
2018-02-21T09:22:10.486Z,65.22
2018-02-21T09:23:14.488Z,67.43
2018-02-21T09:24:17.754Z,68.30
2018-02-21T09:25:20.977Z,63.60
2018-02-21T09:26:24.216Z,65.20
2018-02-21T09:27:27.494Z,65.25
2018-02-21T09:28:30.705Z,62.67
2018-02-21T09:29:34.692Z,63.28
2018-02-21T09:30:37.938Z,68.45
2018-02-21T09:31:41.234Z,66.45
2018-02-21T09:32:44.455Z,70.87
2018-02-21T09:33:48.485Z,64.22
2018-02-21T09:34:51.710Z,70.95
2018-02-21T09:35:54.942Z,65.35
2018-02-21T09:36:58.172Z,65.90
2018-02-21T09:38:01.388Z,66.65
2018-02-21T09:39:05.388Z,70.62
2018-02-21T09:40:09.396Z,68.62
2018-02-21T09:41:13.408Z,62.47
2018-02-21T09:42:17.397Z,62.22
2018-02-21T09:43:21.390Z,69.85
2018-02-21T09:44:25.392Z,63.42
2018-02-21T09:45:29.386Z,64.18
2018-02-21T09:46:32.598Z,68.37
2018-02-21T09:47:35.824Z,67.55
2018-02-21T09:48:39.038Z,63.17
2018-02-21T09:49:43.033Z,67.65
2018-02-21T09:50:46.248Z,70.65
2018-02-21T09:51:49.473Z,71.65
2018-02-21T09:52:52.736Z,65.40
2018-02-21T09:53:56.702Z,69.80
2018-02-21T09:55:00.676Z,68.00
2018-02-21T09:56:03.902Z,66.95
2018-02-21T09:57:07.134Z,65.85
2018-02-21T09:58:10.363Z,64.07
2018-02-21T09:59:13.599Z,67.97
2018-02-21T10:00:16.828Z,64.55
2018-02-21T10:01:20.046Z,65.40
2018-02-21T10:02:23.280Z,65.10
2018-02-21T10:03:27.276Z,60.47
2018-02-21T10:04:31.268Z,60.75
2018-02-21T10:05:35.274Z,68.57
2018-02-21T10:06:39.253Z,61.88
2018-02-21T10:07:42.494Z,55.40
2018-02-21T10:08:45.736Z,63.63
2018-02-21T10:09:49.797Z,67.50
2018-02-21T10:10:53.093Z,68.65
2018-02-21T10:11:56.310Z,69.90
2018-02-21T10:13:00.312Z,62.30
2018-02-21T10:14:04.306Z,64.18
2018-02-21T10:15:08.339Z,66.40
2018-02-21T10:16:12.369Z,66.72
2018-02-21T10:17:15.648Z,64.32
2018-02-21T10:18:18.855Z,62.95
2018-02-21T10:19:22.079Z,73.65
2018-02-21T10:20:25.314Z,69.18
2018-02-21T10:21:28.544Z,67.70
2018-02-21T10:22:31.798Z,65.30
2018-02-21T10:23:35.036Z,67.68
2018-02-21T10:24:38.248Z,59.22
2018-02-21T10:25:41.561Z,61.28
2018-02-21T10:26:45.554Z,63.67
2018-02-21T10:27:49.594Z,61.58
2018-02-21T10:28:52.893Z,64.95
2018-02-21T10:29:56.162Z,64.20
2018-02-21T10:30:59.401Z,63.53
2018-02-21T10:32:02.643Z,66.30
2018-02-21T10:33:05.883Z,62.62
2018-02-21T10:34:09.900Z,66.53
2018-02-21T10:35:13.869Z,62.22
2018-02-21T10:36:17.206Z,61.15
2018-02-21T10:37:20.440Z,58.40
2018-02-21T10:38:24.428Z,70.32
2018-02-21T10:39:28.449Z,67.28
2018-02-21T10:40:33.436Z,64.53
2018-02-21T10:41:36.698Z,62.90
2018-02-21T10:42:39.956Z,66.07
2018-02-21T10:43:43.934Z,68.35
2018-02-21T10:44:47.914Z,59.78
2018-02-21T10:45:52.674Z,59.58
2018-02-21T10:46:55.923Z,70.93
2018-02-21T10:47:59.147Z,69.95
2018-02-21T10:49:02.388Z,70.28
2018-02-21T10:50:05.614Z,62.25
2018-02-21T10:51:08.857Z,67.57
2018-02-21T10:52:12.126Z,63.00
2018-02-21T10:53:15.345Z,65.37
2018-02-21T10:54:19.338Z,60.83
2018-02-21T10:55:23.356Z,66.20
2018-02-21T10:56:26.569Z,69.15
2018-02-21T10:57:29.835Z,62.83
2018-02-21T10:58:33.076Z,69.60
2018-02-21T10:59:36.319Z,73.72
2018-02-21T11:00:45.138Z,70.72
2018-02-21T11:01:48.384Z,68.03
2018-02-21T11:02:51.592Z,67.68
2018-02-21T11:03:54.812Z,70.20
2018-02-21T11:04:58.088Z,70.72
2018-02-21T11:06:01.399Z,64.05
2018-02-21T11:07:05.420Z,66.32
2018-02-21T11:08:08.652Z,70.60
2018-02-21T11:09:11.947Z,65.40
2018-02-21T11:10:15.177Z,64.87
2018-02-21T11:11:18.414Z,61.50
2018-02-21T11:12:21.667Z,62.35
2018-02-21T11:13:24.921Z,63.05
2018-02-21T11:14:28.133Z,66.70
2018-02-21T11:15:31.380Z,62.83
2018-02-21T11:16:34.633Z,60.17
2018-02-21T11:17:37.852Z,60.33
2018-02-21T11:18:41.097Z,62.28
2018-02-21T11:19:44.329Z,62.40
2018-02-21T11:20:47.545Z,59.08
2018-02-21T11:21:50.790Z,61.83
2018-02-21T11:22:53.998Z,57.28
2018-02-21T11:23:57.239Z,61.90
2018-02-21T11:25:00.461Z,57.83
2018-02-21T11:26:03.704Z,62.28
2018-02-21T11:27:07.692Z,55.72
2018-02-21T11:28:11.694Z,60.10
2018-02-21T11:29:15.687Z,58.00
2018-02-21T11:30:18.911Z,58.83
2018-02-21T11:31:22.174Z,57.08
2018-02-21T11:32:26.162Z,57.72
2018-02-21T11:33:30.183Z,63.22
2018-02-21T11:34:33.416Z,59.03
2018-02-21T11:35:38.207Z,57.83
2018-02-21T11:36:41.462Z,63.83
2018-02-21T11:37:44.707Z,61.97
2018-02-21T11:38:47.936Z,62.88
2018-02-21T11:39:51.163Z,58.35
2018-02-21T11:40:54.407Z,60.58
2018-02-21T11:41:57.650Z,57.88
2018-02-21T11:43:00.864Z,58.47
2018-02-21T11:44:04.148Z,63.15
2018-02-21T11:45:07.411Z,63.65
2018-02-21T11:46:10.607Z,57.53
2018-02-21T11:47:13.944Z,57.20
2018-02-21T11:48:17.185Z,58.63
2018-02-21T11:49:20.404Z,56.95
2018-02-21T11:50:23.656Z,58.45
2018-02-21T11:51:26.878Z,63.05
2018-02-21T11:52:30.136Z,57.70
2018-02-21T11:53:33.363Z,61.53
2018-02-21T11:54:36.586Z,67.45
2018-02-21T11:55:39.794Z,59.00
2018-02-21T11:56:43.053Z,59.92
2018-02-21T11:57:46.266Z,57.55
2018-02-21T11:58:49.482Z,65.57
2018-02-21T11:59:53.461Z,58.72
2018-02-21T12:00:56.673Z,65.47
2018-02-21T12:02:00.674Z,58.13
2018-02-21T12:03:04.666Z,62.00
2018-02-21T12:04:07.901Z,58.38
2018-02-21T12:05:11.137Z,60.30
2018-02-21T12:06:15.980Z,64.62
2018-02-21T12:07:19.205Z,64.03
2018-02-21T12:08:22.450Z,64.87
2018-02-21T12:09:25.680Z,62.45
2018-02-21T12:10:29.018Z,60.67
2018-02-21T12:11:32.251Z,55.42
2018-02-21T12:12:35.501Z,55.60
2018-02-21T12:13:38.724Z,58.53
2018-02-21T12:14:42.038Z,55.60
2018-02-21T12:15:45.267Z,58.67
2018-02-21T12:16:48.505Z,55.03
2018-02-21T12:17:51.751Z,60.72
2018-02-21T12:18:54.973Z,58.75
2018-02-21T12:19:58.261Z,59.40
2018-02-21T12:21:01.492Z,59.78
2018-02-21T12:22:04.734Z,59.47
2018-02-21T12:23:07.969Z,62.38
2018-02-21T12:24:11.203Z,58.13
2018-02-21T12:25:14.435Z,60.78
2018-02-21T12:26:17.680Z,60.67
2018-02-21T12:27:20.893Z,56.03
2018-02-21T12:28:24.129Z,54.75
2018-02-21T12:29:27.407Z,56.15
2018-02-21T12:30:30.604Z,57.33
2018-02-21T12:31:33.869Z,58.80
2018-02-21T12:32:39.000Z,54.13
2018-02-21T12:33:42.220Z,52.65
2018-02-21T12:34:45.449Z,53.13
2018-02-21T12:35:49.469Z,57.67
2018-02-21T12:36:52.901Z,54.22
2018-02-21T12:37:56.122Z,53.20
2018-02-21T12:39:05.011Z,46.80
2018-02-21T12:40:08.237Z,47.28
2018-02-21T12:41:17.247Z,46.75
2018-02-21T12:42:21.233Z,51.53
2018-02-21T12:43:25.231Z,53.35
2018-02-21T12:44:29.215Z,46.22
2018-02-21T12:45:32.430Z,44.88
2018-02-21T12:46:35.667Z,44.45
2018-02-21T12:47:38.915Z,45.60
2018-02-21T12:48:42.132Z,43.00
2018-02-21T12:49:45.359Z,50.38
2018-02-21T12:50:49.360Z,47.80
2018-02-21T12:51:53.349Z,47.55
2018-02-21T12:52:57.337Z,52.08
2018-02-21T12:54:01.327Z,45.58
2018-02-21T12:55:04.551Z,50.78
2018-02-21T12:56:07.777Z,50.08
2018-02-21T12:57:10.999Z,47.15
2018-02-21T12:58:15.034Z,48.03
2018-02-21T12:59:18.274Z,50.22
2018-02-21T13:00:21.481Z,49.92
2018-02-21T13:01:24.713Z,47.53
2018-02-21T13:02:27.994Z,54.35
2018-02-21T13:03:31.219Z,49.90
2018-02-21T13:04:35.209Z,50.17
2018-02-21T13:05:39.187Z,51.65
2018-02-21T13:06:42.407Z,48.35
2018-02-21T13:07:45.627Z,56.25
2018-02-21T13:08:48.865Z,54.92
2018-02-21T13:09:52.847Z,54.38
2018-02-21T13:10:56.846Z,53.08
2018-02-21T13:12:00.877Z,50.97
2018-02-21T13:13:04.847Z,55.50
2018-02-21T13:14:08.092Z,52.55
2018-02-21T13:15:11.334Z,48.85
2018-02-21T13:16:15.393Z,49.78
2018-02-21T13:17:18.595Z,48.97
2018-02-21T13:18:21.864Z,54.45
2018-02-21T13:19:25.055Z,57.72
2018-02-21T13:20:28.429Z,49.58
2018-02-21T13:21:31.626Z,54.28
2018-02-21T13:22:34.849Z,49.67
2018-02-21T13:23:38.078Z,50.30
2018-02-21T13:24:41.295Z,50.03
2018-02-21T13:25:45.290Z,49.33
2018-02-21T13:26:49.276Z,46.03
2018-02-21T13:27:52.496Z,48.13
2018-02-21T13:28:55.733Z,52.03
2018-02-21T13:29:58.968Z,51.30
2018-02-21T13:31:02.192Z,52.20
2018-02-21T13:32:05.428Z,57.95
2018-02-21T13:33:08.655Z,51.35
2018-02-21T13:34:11.860Z,60.50
2018-02-21T13:35:15.859Z,55.50
2018-02-21T13:36:19.076Z,53.67
2018-02-21T13:37:22.300Z,51.28
2018-02-21T13:38:25.515Z,55.08
2018-02-21T13:39:29.516Z,55.67
2018-02-21T13:40:33.545Z,59.15
2018-02-21T13:41:36.768Z,58.15